createdAt,value
2018-12-17T00:01:58.943Z,4.10
2018-12-17T00:04:02.266Z,4.10
2018-12-17T00:06:05.935Z,4.10
2018-12-17T00:08:09.107Z,4.10
2018-12-17T00:10:12.043Z,4.10
2018-12-17T00:12:16.652Z,4.10
2018-12-17T00:14:18.619Z,4.00
2018-12-17T00:16:21.506Z,4.10
2018-12-17T00:18:25.201Z,4.10
2018-12-17T00:20:28.305Z,4.10
2018-12-17T00:22:31.270Z,4.10
2018-12-17T00:24:35.682Z,4.10
2018-12-17T00:26:38.667Z,4.10
2018-12-17T00:28:41.548Z,4.10
2018-12-17T00:30:45.971Z,4.10
2018-12-17T00:32:49.647Z,4.10
2018-12-17T00:34:52.551Z,4.10
2018-12-17T00:36:56.259Z,4.20
2018-12-17T00:39:00.355Z,4.20
2018-12-17T00:41:04.551Z,4.20
2018-12-17T00:43:07.440Z,4.10
2018-12-17T00:45:10.386Z,4.10
2018-12-17T00:47:13.895Z,4.10
2018-12-17T00:49:16.783Z,4.10
2018-12-17T00:51:19.678Z,4.10
2018-12-17T00:53:22.667Z,4.10
2018-12-17T00:55:27.085Z,4.10
2018-12-17T00:57:29.970Z,4.10
2018-12-17T00:59:34.007Z,4.10
2018-12-17T01:01:37.664Z,4.10
2018-12-17T01:03:40.607Z,4.10
2018-12-17T01:05:43.541Z,4.10
2018-12-17T01:07:47.236Z,4.10
2018-12-17T01:09:50.273Z,4.10
2018-12-17T01:11:53.203Z,4.10
2018-12-17T01:13:56.200Z,4.20
2018-12-17T01:15:59.867Z,4.10
2018-12-17T01:18:02.884Z,4.20
2018-12-17T01:20:05.811Z,4.20
2018-12-17T01:22:09.379Z,4.10
2018-12-17T01:24:13.026Z,4.10
2018-12-17T01:26:15.931Z,4.10
2018-12-17T01:28:22.173Z,4.10
2018-12-17T01:30:22.502Z,4.10
2018-12-17T01:32:25.501Z,4.10
2018-12-17T01:34:28.379Z,4.10
2018-12-17T01:36:32.052Z,4.20
2018-12-17T01:38:34.975Z,4.20
2018-12-17T01:40:38.655Z,4.20
2018-12-17T01:42:41.533Z,4.20
2018-12-17T01:44:44.698Z,4.20
2018-12-17T01:46:47.703Z,4.20
2018-12-17T01:48:50.586Z,4.20
2018-12-17T01:50:54.999Z,4.20
2018-12-17T01:52:59.403Z,4.20
2018-12-17T01:55:02.383Z,4.20
2018-12-17T01:57:05.307Z,4.20
2018-12-17T01:59:08.970Z,4.20
2018-12-17T02:01:12.051Z,4.20
2018-12-17T02:03:14.930Z,4.20
2018-12-17T02:05:17.855Z,4.20
2018-12-17T02:07:21.523Z,4.20
2018-12-17T02:09:24.419Z,4.20
2018-12-17T02:11:27.399Z,4.30
2018-12-17T02:13:31.051Z,4.30
2018-12-17T02:15:34.056Z,4.30
2018-12-17T02:17:36.959Z,4.30
2018-12-17T02:19:40.635Z,4.30
2018-12-17T02:21:43.654Z,4.30
2018-12-17T02:23:46.526Z,4.30
2018-12-17T02:25:49.475Z,4.30
2018-12-17T02:27:52.683Z,4.30
2018-12-17T02:29:55.742Z,4.30
2018-12-17T02:31:59.322Z,4.30
2018-12-17T02:34:02.247Z,4.30
2018-12-17T02:36:05.174Z,4.20
2018-12-17T02:38:08.082Z,4.20
2018-12-17T02:40:10.961Z,4.20
2018-12-17T02:42:14.390Z,4.20
2018-12-17T02:44:17.279Z,4.20
2018-12-17T02:46:21.049Z,4.20
2018-12-17T02:48:23.988Z,4.20
2018-12-17T02:50:27.623Z,4.20
2018-12-17T02:52:31.039Z,4.20
2018-12-17T02:54:33.915Z,4.20
2018-12-17T02:56:36.838Z,4.20
2018-12-17T02:58:44.002Z,4.20
2018-12-17T03:00:44.983Z,4.20
2018-12-17T03:02:47.816Z,4.20
2018-12-17T03:04:50.706Z,4.20
2018-12-17T03:06:54.391Z,4.20
2018-12-17T03:08:58.087Z,4.20
2018-12-17T03:11:01.000Z,4.20
2018-12-17T03:13:04.003Z,4.20
2018-12-17T03:15:07.937Z,4.20
2018-12-17T03:17:10.969Z,4.20
2018-12-17T03:19:14.631Z,4.20
2018-12-17T03:21:18.382Z,4.20
2018-12-17T03:23:22.051Z,4.20
2018-12-17T03:25:26.390Z,4.20
2018-12-17T03:27:29.295Z,4.20
2018-12-17T03:29:32.172Z,4.20
2018-12-17T03:31:35.074Z,4.20
2018-12-17T03:33:38.084Z,4.20
2018-12-17T03:35:40.991Z,4.20
2018-12-17T03:37:43.888Z,4.20
2018-12-17T03:39:46.774Z,4.20
2018-12-17T03:41:49.663Z,4.20
2018-12-17T03:43:52.635Z,4.30
2018-12-17T03:45:55.545Z,4.30
2018-12-17T03:47:58.447Z,4.30
2018-12-17T03:50:01.328Z,4.30
2018-12-17T03:52:04.207Z,4.30
2018-12-17T03:54:07.111Z,4.30
2018-12-17T03:56:10.074Z,4.30
2018-12-17T03:58:12.994Z,4.30
2018-12-17T04:00:16.035Z,4.30
2018-12-17T04:02:19.448Z,4.30
2018-12-17T04:04:23.120Z,4.30
2018-12-17T04:06:25.996Z,4.30
2018-12-17T04:08:28.899Z,4.30
2018-12-17T04:10:33.072Z,4.40
2018-12-17T04:12:35.951Z,4.30
2018-12-17T04:14:38.871Z,4.40
2018-12-17T04:16:43.072Z,4.40
2018-12-17T04:18:46.069Z,4.40
2018-12-17T04:20:48.963Z,4.40
2018-12-17T04:22:52.615Z,4.40
2018-12-17T04:24:55.527Z,4.40
2018-12-17T04:26:59.187Z,4.40
2018-12-17T04:29:06.812Z,4.40
2018-12-17T04:31:05.883Z,4.50
2018-12-17T04:33:08.763Z,4.40
2018-12-17T04:35:12.486Z,4.40
2018-12-17T04:37:15.402Z,4.50
2018-12-17T04:39:19.903Z,4.50
2018-12-17T04:41:23.555Z,4.50
2018-12-17T04:43:26.446Z,4.50
2018-12-17T04:45:29.346Z,4.50
2018-12-17T04:47:34.616Z,4.60
2018-12-17T04:49:38.262Z,4.60
2018-12-17T04:51:41.147Z,4.60
2018-12-17T04:53:44.049Z,4.70
2018-12-17T04:55:47.726Z,4.70
2018-12-17T04:57:50.607Z,4.70
2018-12-17T04:59:53.513Z,4.70
2018-12-17T05:01:57.710Z,4.80
2018-12-17T05:04:00.620Z,4.80
2018-12-17T05:06:04.400Z,4.80
2018-12-17T05:08:07.292Z,4.80
2018-12-17T05:10:10.988Z,4.80
2018-12-17T05:12:15.574Z,4.80
2018-12-17T05:14:18.508Z,4.80
2018-12-17T05:16:21.439Z,4.80
2018-12-17T05:18:24.340Z,4.80
2018-12-17T05:20:27.331Z,4.80
2018-12-17T05:22:31.719Z,4.80
2018-12-17T05:24:35.039Z,4.80
2018-12-17T05:26:37.949Z,4.80
2018-12-17T05:28:40.815Z,4.90
2018-12-17T05:30:44.503Z,4.90
2018-12-17T05:32:47.587Z,4.80
2018-12-17T05:34:50.500Z,4.90
2018-12-17T05:36:53.448Z,4.90
2018-12-17T05:38:57.112Z,5.00
2018-12-17T05:41:00.019Z,4.90
2018-12-17T05:43:02.913Z,5.00
2018-12-17T05:45:07.403Z,5.00
2018-12-17T05:47:10.744Z,5.00
2018-12-17T05:49:13.707Z,5.10
2018-12-17T05:51:17.389Z,5.10
2018-12-17T05:53:20.283Z,5.10
2018-12-17T05:55:24.681Z,5.10
2018-12-17T05:57:27.581Z,5.10
2018-12-17T05:59:30.490Z,5.20
2018-12-17T06:01:34.166Z,5.20
2018-12-17T06:03:37.840Z,5.20
2018-12-17T06:05:41.020Z,5.20
2018-12-17T06:07:44.603Z,5.20
2018-12-17T06:09:47.499Z,5.20
2018-12-17T06:11:50.419Z,5.30
2018-12-17T06:13:54.146Z,5.30
2018-12-17T06:15:56.983Z,5.30
2018-12-17T06:17:59.917Z,5.40
2018-12-17T06:20:02.807Z,5.40
2018-12-17T06:22:05.748Z,5.40
2018-12-17T06:24:10.030Z,5.50
2018-12-17T06:26:12.936Z,5.50
2018-12-17T06:28:16.716Z,5.50
2018-12-17T06:30:19.637Z,5.50
2018-12-17T06:32:23.305Z,5.60
2018-12-17T06:34:26.305Z,5.60
2018-12-17T06:36:29.315Z,5.60
2018-12-17T06:38:33.806Z,5.70
2018-12-17T06:40:37.675Z,5.70
2018-12-17T06:42:40.605Z,5.70
2018-12-17T06:44:44.971Z,5.80
2018-12-17T06:46:48.491Z,5.80
2018-12-17T06:48:51.471Z,5.80
2018-12-17T06:50:54.385Z,5.80
2018-12-17T06:52:58.079Z,5.90
2018-12-17T06:55:00.938Z,5.90
2018-12-17T06:57:03.919Z,5.90
2018-12-17T06:59:07.578Z,5.90
2018-12-17T07:01:10.510Z,5.90
2018-12-17T07:03:14.170Z,6.00
2018-12-17T07:05:17.047Z,5.90
2018-12-17T07:07:20.794Z,6.00
2018-12-17T07:09:23.795Z,6.00
2018-12-17T07:11:27.468Z,6.10
2018-12-17T07:13:31.138Z,6.10
2018-12-17T07:15:34.023Z,6.00
2018-12-17T07:17:37.056Z,6.10
2018-12-17T07:19:40.706Z,6.10
2018-12-17T07:21:44.422Z,6.10
2018-12-17T07:23:48.812Z,6.10
2018-12-17T07:25:51.700Z,6.10
2018-12-17T07:27:54.700Z,6.10
2018-12-17T07:29:57.590Z,6.10
2018-12-17T07:32:01.289Z,6.20
2018-12-17T07:34:05.684Z,6.20
2018-12-17T07:36:08.579Z,6.10
2018-12-17T07:38:11.570Z,6.20
2018-12-17T07:40:15.250Z,6.20
2018-12-17T07:42:18.653Z,6.20
2018-12-17T07:44:21.682Z,6.20
2018-12-17T07:46:24.629Z,6.20
2018-12-17T07:48:27.579Z,6.20
2018-12-17T07:50:31.236Z,6.20
2018-12-17T07:52:34.890Z,6.20
2018-12-17T07:54:37.771Z,6.30
2018-12-17T07:56:40.663Z,6.30
2018-12-17T07:58:44.343Z,6.30
2018-12-17T08:00:47.352Z,6.30
2018-12-17T08:02:51.223Z,6.30
2018-12-17T08:04:54.115Z,6.30
2018-12-17T08:06:57.009Z,6.30
2018-12-17T08:08:59.920Z,6.30
2018-12-17T08:11:03.583Z,6.30
2018-12-17T08:13:06.527Z,6.30
2018-12-17T08:15:09.471Z,6.30
2018-12-17T08:17:12.557Z,6.30
2018-12-17T08:19:16.257Z,6.30
2018-12-17T08:21:19.947Z,6.30
2018-12-17T08:23:23.643Z,6.30
2018-12-17T08:25:26.534Z,6.30
2018-12-17T08:27:29.414Z,6.30
2018-12-17T08:29:32.379Z,6.30
2018-12-17T08:31:35.271Z,6.30
2018-12-17T08:33:38.296Z,6.30
2018-12-17T08:35:41.187Z,6.30
2018-12-17T08:37:44.116Z,6.30
2018-12-17T08:39:47.808Z,6.40
2018-12-17T08:41:50.707Z,6.30
2018-12-17T08:43:54.817Z,6.40
2018-12-17T08:45:59.116Z,6.40
2018-12-17T08:48:02.003Z,6.40
2018-12-17T08:50:04.893Z,6.40
2018-12-17T08:52:10.011Z,6.40
2018-12-17T08:54:12.928Z,6.40
2018-12-17T08:56:16.591Z,6.40
2018-12-17T08:58:21.050Z,6.50
2018-12-17T09:00:23.959Z,6.50
2018-12-17T09:02:26.925Z,6.50
2018-12-17T09:04:29.849Z,6.50
2018-12-17T09:06:32.737Z,6.50
2018-12-17T09:08:35.638Z,6.50
2018-12-17T09:10:38.596Z,6.50
2018-12-17T09:12:41.486Z,6.50
2018-12-17T09:14:44.384Z,6.50
2018-12-17T09:16:48.030Z,6.50
2018-12-17T09:18:50.944Z,6.50
2018-12-17T09:20:53.962Z,6.50
2018-12-17T09:22:57.648Z,6.50
2018-12-17T09:25:01.335Z,6.50
2018-12-17T09:27:05.042Z,6.60
2018-12-17T09:29:09.257Z,6.60
2018-12-17T09:31:12.921Z,6.50
2018-12-17T09:33:15.804Z,6.60
2018-12-17T09:35:18.799Z,6.50
2018-12-17T09:37:21.700Z,6.60
2018-12-17T09:39:24.676Z,6.50
2018-12-17T09:41:28.378Z,6.60
2018-12-17T09:43:31.254Z,6.60
2018-12-17T09:45:35.390Z,6.60
2018-12-17T09:47:39.044Z,6.60
2018-12-17T09:49:41.951Z,6.60
2018-12-17T09:51:45.604Z,6.60
2018-12-17T09:53:49.135Z,6.60
2018-12-17T09:55:52.115Z,6.60
2018-12-17T09:57:55.131Z,6.60
2018-12-17T09:59:58.114Z,6.60
2018-12-17T10:02:02.480Z,6.60
2018-12-17T10:04:05.331Z,6.60
2018-12-17T10:06:08.234Z,6.60
2018-12-17T10:08:11.825Z,6.60
2018-12-17T10:10:14.719Z,6.60
2018-12-17T10:12:17.608Z,6.60
2018-12-17T10:14:20.584Z,6.60
2018-12-17T10:16:23.483Z,6.60
2018-12-17T10:18:27.130Z,6.70
2018-12-17T10:20:30.048Z,6.70
2018-12-17T10:22:32.957Z,6.70
2018-12-17T10:24:36.628Z,6.70
2018-12-17T10:26:39.555Z,6.70
2018-12-17T10:28:43.204Z,6.70
2018-12-17T10:30:46.132Z,6.70
2018-12-17T10:32:49.775Z,6.70
2018-12-17T10:34:52.789Z,6.70
2018-12-17T10:36:57.211Z,6.70
2018-12-17T10:39:00.084Z,6.70
2018-12-17T10:41:03.043Z,6.70
2018-12-17T10:43:05.928Z,6.70
2018-12-17T10:45:08.832Z,6.70
2018-12-17T10:47:11.716Z,6.70
2018-12-17T10:49:15.434Z,6.70
2018-12-17T10:51:19.416Z,6.70
2018-12-17T10:53:22.328Z,6.70
2018-12-17T10:55:26.002Z,6.80
2018-12-17T10:57:28.871Z,6.70
2018-12-17T10:59:31.772Z,6.80
2018-12-17T11:01:40.388Z,6.70
2018-12-17T11:03:44.769Z,6.80
2018-12-17T11:05:47.680Z,6.80
2018-12-17T11:07:50.669Z,6.80
2018-12-17T11:09:54.312Z,6.80
2018-12-17T11:11:57.199Z,6.80
2018-12-17T11:14:00.465Z,6.80
2018-12-17T11:16:03.371Z,6.80
2018-12-17T11:18:06.776Z,6.80
2018-12-17T11:20:09.661Z,6.80
2018-12-17T11:22:13.968Z,6.80
2018-12-17T11:24:17.074Z,6.80
2018-12-17T11:26:19.972Z,6.80
2018-12-17T11:28:23.976Z,6.70
2018-12-17T11:30:27.628Z,6.80
2018-12-17T11:32:30.555Z,6.80
2018-12-17T11:34:33.435Z,6.80
2018-12-17T11:36:37.915Z,6.80
2018-12-17T11:38:41.455Z,6.80
2018-12-17T11:40:45.114Z,6.80
2018-12-17T11:42:48.024Z,6.80
2018-12-17T11:44:50.903Z,6.80
2018-12-17T11:46:55.331Z,6.70
2018-12-17T11:48:58.986Z,6.80
2018-12-17T11:51:01.867Z,6.80
2018-12-17T11:53:04.982Z,6.70
2018-12-17T11:55:07.849Z,6.80
2018-12-17T11:57:33.351Z,6.80
2018-12-17T11:59:36.232Z,6.80
2018-12-17T12:01:39.136Z,6.70
2018-12-17T12:03:42.154Z,6.80
2018-12-17T12:05:45.789Z,6.80
2018-12-17T12:07:48.685Z,6.70
2018-12-17T12:09:51.594Z,6.80
2018-12-17T12:11:55.251Z,6.80
2018-12-17T12:13:58.135Z,6.80
2018-12-17T12:16:01.025Z,6.80
2018-12-17T12:18:03.920Z,6.80
2018-12-17T12:20:06.820Z,6.80
2018-12-17T12:22:09.721Z,6.80
2018-12-17T12:24:12.631Z,6.80
2018-12-17T12:26:16.675Z,6.90
2018-12-17T12:28:19.559Z,6.90
2018-12-17T12:30:23.212Z,6.80
2018-12-17T12:32:26.126Z,6.90
2018-12-17T12:34:29.031Z,6.90
2018-12-17T12:36:33.007Z,6.90
2018-12-17T12:38:35.904Z,6.90
2018-12-17T12:40:38.820Z,6.90
2018-12-17T12:42:41.978Z,6.90
2018-12-17T12:44:44.958Z,6.90
2018-12-17T12:46:47.856Z,6.90
2018-12-17T12:48:50.776Z,6.90
2018-12-17T12:50:54.691Z,6.90
2018-12-17T12:52:57.911Z,6.90
2018-12-17T12:55:00.794Z,6.90
2018-12-17T12:57:03.871Z,7.00
2018-12-17T12:59:07.462Z,7.00
2018-12-17T13:01:10.592Z,7.00
2018-12-17T13:03:14.254Z,7.00
2018-12-17T13:05:17.248Z,7.00
2018-12-17T13:07:20.971Z,7.00
2018-12-17T13:09:24.187Z,7.00
2018-12-17T13:11:27.438Z,7.00
2018-12-17T13:13:31.103Z,7.00
2018-12-17T13:15:34.011Z,7.00
2018-12-17T13:17:36.890Z,7.10
2018-12-17T13:19:40.603Z,7.10
2018-12-17T13:21:44.262Z,7.10
2018-12-17T13:23:47.271Z,7.10
2018-12-17T13:25:50.755Z,7.10
2018-12-17T13:27:55.047Z,7.10
2018-12-17T13:29:58.807Z,7.10
2018-12-17T13:32:03.063Z,7.10
2018-12-17T13:34:06.151Z,7.10
2018-12-17T13:36:09.063Z,7.10
2018-12-17T13:38:12.070Z,7.10
2018-12-17T13:40:15.732Z,7.10
2018-12-17T13:42:18.753Z,7.10
2018-12-17T13:44:22.399Z,7.20
2018-12-17T13:46:25.300Z,7.10
2018-12-17T13:48:28.387Z,7.10
2018-12-17T13:50:33.260Z,7.20
2018-12-17T13:52:51.499Z,7.20
2018-12-17T13:54:54.419Z,7.20
2018-12-17T13:56:58.136Z,7.20
2018-12-17T13:59:01.322Z,7.20
2018-12-17T14:01:04.212Z,7.20
2018-12-17T14:03:07.938Z,7.20
2018-12-17T14:05:11.389Z,7.20
2018-12-17T14:07:14.387Z,7.20
2018-12-17T14:09:17.263Z,7.20
2018-12-17T14:11:20.224Z,7.30
2018-12-17T14:13:23.093Z,7.20
2018-12-17T14:15:26.088Z,7.30
2018-12-17T14:17:35.637Z,7.30
2018-12-17T14:19:38.647Z,7.30
2018-12-17T14:21:47.311Z,7.30
2018-12-17T14:23:50.249Z,7.30
2018-12-17T14:25:53.928Z,7.30
2018-12-17T14:27:56.820Z,7.30
2018-12-17T14:29:59.705Z,7.30
2018-12-17T14:32:03.343Z,7.30
2018-12-17T14:34:06.224Z,7.30
2018-12-17T14:36:09.116Z,7.40
2018-12-17T14:38:12.859Z,7.40
2018-12-17T14:40:16.531Z,7.40
2018-12-17T14:42:19.419Z,7.30
2018-12-17T14:44:28.079Z,7.40
2018-12-17T14:46:30.989Z,7.40
2018-12-17T14:48:33.895Z,7.40
2018-12-17T14:50:36.792Z,7.40
2018-12-17T14:52:39.688Z,7.40
2018-12-17T14:54:43.356Z,7.40
2018-12-17T14:56:46.342Z,7.40
2018-12-17T14:58:49.222Z,7.40
2018-12-17T15:00:52.143Z,7.40
2018-12-17T15:02:55.819Z,7.40
2018-12-17T15:04:58.701Z,7.40
2018-12-17T15:07:02.381Z,7.40
2018-12-17T15:09:05.327Z,7.40
2018-12-17T15:11:08.241Z,7.40
2018-12-17T15:13:11.174Z,7.40
2018-12-17T15:15:14.832Z,7.50
2018-12-17T15:17:18.259Z,7.50
2018-12-17T15:19:21.250Z,7.50
2018-12-17T15:21:24.975Z,7.60
2018-12-17T15:23:27.909Z,7.60
2018-12-17T15:25:31.614Z,7.80
2018-12-17T15:27:35.285Z,7.80
2018-12-17T15:29:38.178Z,7.80
2018-12-17T15:31:43.254Z,7.80
2018-12-17T15:33:44.824Z,7.90
2018-12-17T15:35:47.833Z,7.90
2018-12-17T15:37:50.828Z,7.90
2018-12-17T15:39:53.742Z,8.00
2018-12-17T15:41:56.665Z,8.00
2018-12-17T15:43:59.532Z,8.00
2018-12-17T15:46:02.415Z,8.00
2018-12-17T15:48:05.320Z,8.00
2018-12-17T15:50:08.214Z,8.00
2018-12-17T15:52:11.124Z,8.00
2018-12-17T15:54:14.771Z,8.00
2018-12-17T15:56:17.656Z,8.00
2018-12-17T15:58:20.576Z,8.00
2018-12-17T16:00:24.230Z,8.00
2018-12-17T16:02:27.141Z,8.00
2018-12-17T16:04:30.003Z,8.00
2018-12-17T16:06:32.930Z,8.00
2018-12-17T16:08:35.863Z,8.00
2018-12-17T16:10:38.734Z,8.00
2018-12-17T16:12:41.631Z,8.00
2018-12-17T16:14:44.533Z,8.00
2018-12-17T16:16:47.590Z,8.00
2018-12-17T16:18:50.475Z,8.00
2018-12-17T16:20:53.365Z,8.00
2018-12-17T16:22:57.260Z,8.00
2018-12-17T16:25:00.127Z,7.90
2018-12-17T16:27:03.059Z,7.90
2018-12-17T16:29:05.932Z,8.00
2018-12-17T16:31:09.587Z,7.90
2018-12-17T16:33:12.495Z,7.90
2018-12-17T16:35:15.378Z,7.90
2018-12-17T16:37:18.303Z,7.90
2018-12-17T16:39:21.959Z,7.90
2018-12-17T16:41:24.843Z,7.90
2018-12-17T16:43:28.511Z,7.90
2018-12-17T16:45:31.392Z,7.90
2018-12-17T16:47:34.330Z,7.90
2018-12-17T16:49:37.315Z,7.90
2018-12-17T16:51:40.948Z,7.90
2018-12-17T16:53:43.851Z,7.90
2018-12-17T16:55:46.732Z,7.80
2018-12-17T16:57:49.631Z,7.90
2018-12-17T16:59:53.306Z,7.90
2018-12-17T17:01:56.239Z,7.80
2018-12-17T17:03:59.901Z,7.90
2018-12-17T17:06:02.783Z,7.80
2018-12-17T17:08:05.802Z,7.90
2018-12-17T17:10:08.719Z,7.90
2018-12-17T17:12:11.599Z,7.80
2018-12-17T17:14:14.518Z,7.80
2018-12-17T17:16:17.442Z,7.80
2018-12-17T17:18:20.399Z,7.80
2018-12-17T17:20:24.059Z,7.90
2018-12-17T17:22:26.935Z,7.80
2018-12-17T17:24:29.850Z,7.80
2018-12-17T17:26:33.503Z,7.80
2018-12-17T17:28:36.424Z,7.80
2018-12-17T17:30:39.324Z,7.90
2018-12-17T17:32:42.191Z,7.90
2018-12-17T17:34:45.085Z,7.80
2018-12-17T17:36:48.888Z,7.90
2018-12-17T17:38:51.791Z,7.80
2018-12-17T17:40:54.715Z,7.90
2018-12-17T17:42:57.604Z,7.80
2018-12-17T17:45:00.503Z,7.90
2018-12-17T17:47:04.151Z,7.80
2018-12-17T17:49:07.380Z,7.80
2018-12-17T17:51:10.288Z,7.80
2018-12-17T17:53:13.962Z,7.90
2018-12-17T17:55:16.859Z,7.90
2018-12-17T17:57:20.518Z,7.90
2018-12-17T17:59:23.416Z,7.80
2018-12-17T18:01:26.335Z,7.90
2018-12-17T18:03:29.976Z,7.90
2018-12-17T18:05:32.885Z,7.80
2018-12-17T18:07:35.759Z,7.90
2018-12-17T18:09:38.762Z,7.90
2018-12-17T18:11:42.410Z,7.80
2018-12-17T18:13:45.300Z,7.80
2018-12-17T18:15:48.202Z,7.90
2018-12-17T18:17:51.087Z,7.90
2018-12-17T18:19:54.068Z,7.90
2018-12-17T18:21:57.730Z,7.90
2018-12-17T18:24:00.714Z,7.90
2018-12-17T18:26:03.593Z,7.90
2018-12-17T18:28:06.494Z,7.90
2018-12-17T18:30:09.386Z,7.90
2018-12-17T18:32:13.155Z,7.80
2018-12-17T18:34:16.135Z,7.90
2018-12-17T18:36:19.036Z,7.90
2018-12-17T18:38:21.962Z,7.90
2018-12-17T18:40:24.880Z,7.80
2018-12-17T18:42:27.768Z,7.80
2018-12-17T18:44:30.681Z,7.80
2018-12-17T18:46:33.543Z,7.80
2018-12-17T18:48:36.444Z,7.80
2018-12-17T18:50:39.328Z,7.80
2018-12-17T18:52:42.207Z,7.70
2018-12-17T18:54:45.197Z,7.70
2018-12-17T18:56:48.077Z,7.70
2018-12-17T18:58:52.473Z,7.70
2018-12-17T19:00:55.516Z,7.70
2018-12-17T19:02:58.399Z,7.70
2018-12-17T19:05:01.644Z,7.70
2018-12-17T19:07:04.567Z,7.60
2018-12-17T19:09:07.561Z,7.60
2018-12-17T19:11:10.510Z,7.60
2018-12-17T19:13:14.175Z,7.60
2018-12-17T19:15:17.066Z,7.60
2018-12-17T19:17:19.987Z,7.60
2018-12-17T19:19:22.905Z,7.60
2018-12-17T19:21:25.811Z,7.60
2018-12-17T19:23:29.471Z,7.60
2018-12-17T19:25:32.372Z,7.50
2018-12-17T19:27:35.697Z,7.60
2018-12-17T19:29:40.149Z,7.50
2018-12-17T19:31:43.087Z,7.50
2018-12-17T19:33:47.513Z,7.50
2018-12-17T19:35:51.495Z,7.50
2018-12-17T19:37:54.394Z,7.50
2018-12-17T19:39:57.402Z,7.50
2018-12-17T19:42:01.192Z,7.50
2018-12-17T19:44:04.846Z,7.50
2018-12-17T19:46:07.741Z,7.50
2018-12-17T19:48:10.613Z,7.50
2018-12-17T19:50:13.491Z,7.50
2018-12-17T19:52:16.675Z,7.50
2018-12-17T19:54:19.552Z,7.50
2018-12-17T19:56:22.451Z,7.50
2018-12-17T19:58:25.363Z,7.50
2018-12-17T20:00:29.014Z,7.50
2018-12-17T20:02:31.918Z,7.40
2018-12-17T20:04:34.803Z,7.40
2018-12-17T20:06:37.820Z,7.40
2018-12-17T20:08:40.727Z,7.40
2018-12-17T20:10:43.683Z,7.40
2018-12-17T20:12:46.539Z,7.40
2018-12-17T20:14:50.191Z,7.40
2018-12-17T20:16:53.088Z,7.40
2018-12-17T20:18:56.024Z,7.40
2018-12-17T20:21:00.223Z,7.40
2018-12-17T20:23:03.181Z,7.40
2018-12-17T20:25:06.069Z,7.30
2018-12-17T20:27:08.976Z,7.40
2018-12-17T20:29:12.641Z,7.40
2018-12-17T20:31:14.800Z,7.30
2018-12-17T20:33:17.674Z,7.30
2018-12-17T20:35:20.556Z,7.30
2018-12-17T20:37:23.469Z,7.30
2018-12-17T20:39:27.116Z,7.30
2018-12-17T20:41:30.008Z,7.30
2018-12-17T20:43:32.888Z,7.30
2018-12-17T20:45:35.781Z,7.30
2018-12-17T20:47:38.713Z,7.30
2018-12-17T20:49:42.386Z,7.30
2018-12-17T20:51:45.395Z,7.30
2018-12-17T20:53:49.020Z,7.30
2018-12-17T20:55:52.797Z,7.30
2018-12-17T20:57:56.443Z,7.30
2018-12-17T20:59:59.382Z,7.30
2018-12-17T21:02:02.652Z,7.30
2018-12-17T21:04:06.835Z,7.30
2018-12-17T21:06:09.935Z,7.30
2018-12-17T21:08:14.407Z,7.30
2018-12-17T21:10:17.344Z,7.30
2018-12-17T21:12:21.003Z,7.30
2018-12-17T21:14:24.068Z,7.30
2018-12-17T21:16:26.816Z,7.30
2018-12-17T21:18:30.479Z,7.30
2018-12-17T21:20:33.402Z,7.30
2018-12-17T21:22:37.052Z,7.30
2018-12-17T21:24:39.953Z,7.30
2018-12-17T21:26:42.815Z,7.30
2018-12-17T21:28:45.743Z,7.30
2018-12-17T21:30:49.401Z,7.30
2018-12-17T21:32:52.296Z,7.30
2018-12-17T21:34:55.182Z,7.30
2018-12-17T21:36:58.052Z,7.30
2018-12-17T21:39:00.951Z,7.30
2018-12-17T21:41:04.612Z,7.30
2018-12-17T21:43:07.805Z,7.30
2018-12-17T21:45:10.675Z,7.30
2018-12-17T21:47:13.575Z,7.40
2018-12-17T21:49:16.465Z,7.40
2018-12-17T21:51:20.918Z,7.40
2018-12-17T21:53:24.575Z,7.40
2018-12-17T21:55:28.311Z,7.40
2018-12-17T21:57:32.116Z,7.50
2018-12-17T21:59:35.771Z,7.40
2018-12-17T22:01:38.652Z,7.40
2018-12-17T22:03:41.563Z,7.50
2018-12-17T22:05:45.223Z,7.50
2018-12-17T22:07:48.122Z,7.50
2018-12-17T22:09:51.020Z,7.50
2018-12-17T22:11:54.671Z,7.50
2018-12-17T22:13:57.579Z,7.50
2018-12-17T22:16:00.463Z,7.60
2018-12-17T22:18:03.360Z,7.60
2018-12-17T22:20:07.027Z,7.60
2018-12-17T22:22:10.713Z,7.60
2018-12-17T22:24:13.623Z,7.60
2018-12-17T22:26:16.503Z,7.60
2018-12-17T22:28:19.407Z,7.60
2018-12-17T22:30:23.055Z,7.60
2018-12-17T22:32:25.998Z,7.60
2018-12-17T22:34:29.084Z,7.70
2018-12-17T22:36:32.719Z,7.70
2018-12-17T22:38:35.632Z,7.70
2018-12-17T22:40:38.519Z,7.70
2018-12-17T22:42:41.395Z,7.70
2018-12-17T22:44:45.066Z,7.70
2018-12-17T22:46:47.968Z,7.70
2018-12-17T22:48:51.655Z,7.80
2018-12-17T22:50:54.539Z,7.70
2018-12-17T22:52:57.439Z,7.80
2018-12-17T22:55:00.363Z,7.80
2018-12-17T22:57:03.331Z,7.80
2018-12-17T22:59:06.991Z,7.80
2018-12-17T23:01:09.909Z,7.80
2018-12-17T23:03:13.538Z,7.80
2018-12-17T23:05:16.461Z,7.80
2018-12-17T23:07:19.332Z,7.80
2018-12-17T23:09:21.843Z,7.80
2018-12-17T23:11:37.527Z,7.90
2018-12-17T23:13:52.363Z,7.90
2018-12-17T23:16:08.686Z,7.90
2018-12-17T23:18:11.460Z,7.90
2018-12-17T23:20:14.396Z,7.90
2018-12-17T23:22:17.327Z,7.90
2018-12-17T23:24:20.226Z,7.90
2018-12-17T23:26:23.123Z,7.90
2018-12-17T23:28:26.010Z,7.90
2018-12-17T23:30:28.913Z,7.90
2018-12-17T23:32:31.792Z,7.90
2018-12-17T23:34:34.675Z,7.90
2018-12-17T23:36:37.603Z,7.90
2018-12-17T23:38:40.496Z,7.90
2018-12-17T23:40:44.148Z,7.90
2018-12-17T23:42:47.027Z,7.90
2018-12-17T23:44:49.896Z,8.00
2018-12-17T23:46:52.783Z,7.90
2018-12-17T23:48:55.664Z,8.00
2018-12-17T23:50:58.543Z,7.90
2018-12-17T23:53:01.419Z,8.00
2018-12-17T23:55:05.099Z,8.00
2018-12-17T23:57:08.003Z,8.00
2018-12-17T23:59:11.691Z,8.00
